createdAt,value
2023-04-16T00:01:10.328Z,89.62
2023-04-16T00:03:38.233Z,89.71
2023-04-16T00:06:06.606Z,89.73
2023-04-16T00:08:35.583Z,89.62
2023-04-16T00:11:03.392Z,89.68
2023-04-16T00:13:31.120Z,89.53
2023-04-16T00:16:00.350Z,89.53
2023-04-16T00:18:28.063Z,89.53
2023-04-16T00:20:55.926Z,89.60
2023-04-16T00:23:25.169Z,89.59
2023-04-16T00:25:53.617Z,89.61
2023-04-16T00:28:21.348Z,89.82
2023-04-16T00:30:49.145Z,89.66
2023-04-16T00:33:18.291Z,89.56
2023-04-16T00:35:46.565Z,89.49
2023-04-16T00:38:15.124Z,89.25
2023-04-16T00:40:43.023Z,89.46
2023-04-16T00:43:10.873Z,89.25
2023-04-16T00:45:39.565Z,89.23
2023-04-16T00:48:07.436Z,89.13
2023-04-16T00:50:36.651Z,89.09
2023-04-16T00:53:04.434Z,89.13
2023-04-16T00:55:32.398Z,89.17
2023-04-16T00:58:00.630Z,89.11
2023-04-16T01:00:28.410Z,89.01
2023-04-16T01:02:56.926Z,89.17
2023-04-16T01:05:24.778Z,88.98
2023-04-16T01:07:53.891Z,89.03
2023-04-16T01:10:21.661Z,89.19
2023-04-16T01:12:49.425Z,89.11
2023-04-16T01:15:17.268Z,89.14
2023-04-16T01:17:47.129Z,89.24
2023-04-16T01:20:15.009Z,89.23
2023-04-16T01:22:44.108Z,89.35
2023-04-16T01:25:15.784Z,89.34
2023-04-16T01:27:43.664Z,89.11
2023-04-16T01:30:11.983Z,89.07
2023-04-16T01:32:59.607Z,89.02
2023-04-16T01:35:27.558Z,89.06
2023-04-16T01:37:56.682Z,89.09
2023-04-16T01:40:24.572Z,89.13
2023-04-16T01:42:52.310Z,89.06
2023-04-16T01:45:20.316Z,89.03
2023-04-16T01:47:48.173Z,88.87
2023-04-16T01:50:15.955Z,88.85
2023-04-16T01:52:43.672Z,88.70
2023-04-16T01:55:13.031Z,88.65
2023-04-16T01:57:40.825Z,88.48
2023-04-16T02:00:09.693Z,88.28
2023-04-16T02:02:46.640Z,88.46
2023-04-16T02:05:19.716Z,88.40
2023-04-16T02:07:47.775Z,87.92
2023-04-16T02:10:16.970Z,87.94
2023-04-16T02:12:45.476Z,87.88
2023-04-16T02:15:15.739Z,87.66
2023-04-16T02:17:43.723Z,87.76
2023-04-16T02:20:12.644Z,87.72
2023-04-16T02:22:51.127Z,87.57
2023-04-16T02:25:23.120Z,87.61
2023-04-16T02:27:52.173Z,87.59
2023-04-16T02:30:27.600Z,87.55
2023-04-16T02:32:55.789Z,87.50
2023-04-16T02:35:23.580Z,87.42
2023-04-16T02:37:51.366Z,87.53
2023-04-16T02:40:19.332Z,87.33
2023-04-16T02:42:48.974Z,87.38
2023-04-16T02:45:17.056Z,87.22
2023-04-16T02:47:44.845Z,87.45
2023-04-16T02:50:12.987Z,87.36
2023-04-16T02:52:40.739Z,87.28
2023-04-16T02:55:09.612Z,87.24
2023-04-16T02:57:37.476Z,87.31
2023-04-16T03:00:08.000Z,87.25
2023-04-16T03:02:36.154Z,87.17
2023-04-16T03:05:04.295Z,87.36
2023-04-16T03:07:32.029Z,87.27
2023-04-16T03:10:00.294Z,87.31
2023-04-16T03:12:28.052Z,87.18
2023-04-16T03:14:55.916Z,87.30
2023-04-16T03:17:25.311Z,87.24
2023-04-16T03:19:53.091Z,87.41
2023-04-16T03:22:20.846Z,87.53
2023-04-16T03:24:48.596Z,87.10
2023-04-16T03:27:16.368Z,87.55
2023-04-16T03:29:45.472Z,87.69
2023-04-16T03:32:13.576Z,87.76
2023-04-16T03:34:42.795Z,87.46
2023-04-16T03:37:11.948Z,87.59
2023-04-16T03:39:40.323Z,87.43
2023-04-16T03:42:08.097Z,87.60
2023-04-16T03:44:36.208Z,87.57
2023-04-16T03:47:03.966Z,87.71
2023-04-16T03:49:31.751Z,87.68
2023-04-16T03:52:01.520Z,87.49
2023-04-16T03:54:29.464Z,87.74
2023-04-16T03:57:07.769Z,87.63
2023-04-16T03:59:35.735Z,87.86
2023-04-16T04:02:03.513Z,88.27
2023-04-16T04:04:32.748Z,87.88
2023-04-16T04:07:02.000Z,87.58
2023-04-16T04:09:29.735Z,87.51
2023-04-16T04:11:57.482Z,87.24
2023-04-16T04:14:25.359Z,87.21
2023-04-16T04:16:53.082Z,87.35
2023-04-16T04:19:20.847Z,86.91
2023-04-16T04:21:49.367Z,86.85
2023-04-16T04:24:19.966Z,87.05
2023-04-16T04:26:47.873Z,86.69
2023-04-16T04:29:15.649Z,86.71
2023-04-16T04:31:43.539Z,86.60
2023-04-16T04:34:11.424Z,86.64
2023-04-16T04:36:39.450Z,86.64
2023-04-16T04:39:07.478Z,86.73
2023-04-16T04:41:36.802Z,86.63
2023-04-16T04:44:05.062Z,86.47
2023-04-16T04:46:32.753Z,86.68
2023-04-16T04:49:00.663Z,86.94
2023-04-16T04:51:28.999Z,86.78
2023-04-16T04:53:57.888Z,86.55
2023-04-16T04:56:25.631Z,86.71
2023-04-16T04:58:54.790Z,86.93
2023-04-16T05:01:22.649Z,86.95
2023-04-16T05:03:50.495Z,87.01
2023-04-16T05:06:18.434Z,87.17
2023-04-16T05:08:46.201Z,86.87
2023-04-16T05:11:13.974Z,87.11
2023-04-16T05:13:41.773Z,86.78
2023-04-16T05:16:10.930Z,86.92
2023-04-16T05:18:38.731Z,86.85
2023-04-16T05:21:06.825Z,86.70
2023-04-16T05:23:34.567Z,86.90
2023-04-16T05:26:02.311Z,86.52
2023-04-16T05:28:31.102Z,86.59
2023-04-16T05:30:58.972Z,86.63
2023-04-16T05:33:28.201Z,86.41
2023-04-16T05:35:55.877Z,86.60
2023-04-16T05:38:23.633Z,86.77
2023-04-16T05:40:51.312Z,86.63
2023-04-16T05:43:19.189Z,86.22
2023-04-16T05:45:46.913Z,86.26
2023-04-16T05:48:14.774Z,86.29
2023-04-16T05:50:43.921Z,86.23
2023-04-16T05:53:13.959Z,86.22
2023-04-16T05:55:41.737Z,86.12
2023-04-16T05:58:09.478Z,86.12
2023-04-16T06:00:37.360Z,85.79
2023-04-16T06:03:05.497Z,85.73
2023-04-16T06:05:33.454Z,85.72
2023-04-16T06:08:02.597Z,85.48
2023-04-16T06:10:30.369Z,85.48
2023-04-16T06:12:58.153Z,85.65
2023-04-16T06:15:25.838Z,85.97
2023-04-16T06:17:53.647Z,85.70
2023-04-16T06:20:21.462Z,85.89
2023-04-16T06:22:49.229Z,85.60
2023-04-16T06:25:18.516Z,85.44
2023-04-16T06:27:46.243Z,85.32
2023-04-16T06:30:14.691Z,85.75
2023-04-16T06:32:43.308Z,85.50
2023-04-16T06:35:11.309Z,85.57
2023-04-16T06:37:39.259Z,85.32
2023-04-16T06:40:07.954Z,85.47
2023-04-16T06:42:37.134Z,85.35
2023-04-16T06:45:05.448Z,85.02
2023-04-16T06:47:33.208Z,84.69
2023-04-16T06:50:00.940Z,84.36
2023-04-16T06:52:29.757Z,84.08
2023-04-16T06:54:57.812Z,83.63
2023-04-16T06:57:25.797Z,83.04
2023-04-16T06:59:54.954Z,81.81
2023-04-16T07:02:22.849Z,81.90
2023-04-16T07:04:52.287Z,81.64
2023-04-16T07:07:20.055Z,82.11
2023-04-16T07:09:47.759Z,81.99
2023-04-16T07:12:15.567Z,81.43
2023-04-16T07:14:48.162Z,81.44
2023-04-16T07:17:17.345Z,81.03
2023-04-16T07:19:45.298Z,80.67
2023-04-16T07:22:13.055Z,80.20
2023-04-16T07:24:40.786Z,80.48
2023-04-16T07:27:08.548Z,80.31
2023-04-16T07:29:36.325Z,80.33
2023-04-16T07:32:04.145Z,80.41
2023-04-16T07:34:33.246Z,80.26
2023-04-16T07:37:00.974Z,80.03
2023-04-16T07:39:28.750Z,79.97
2023-04-16T07:41:56.537Z,80.01
2023-04-16T07:44:24.333Z,79.65
2023-04-16T07:46:52.059Z,79.50
2023-04-16T07:49:20.068Z,79.16
2023-04-16T07:51:49.207Z,79.17
2023-04-16T07:54:17.087Z,79.22
2023-04-16T07:56:44.847Z,78.57
2023-04-16T07:59:21.872Z,78.53
2023-04-16T08:01:51.704Z,78.10
2023-04-16T08:04:24.590Z,77.62
2023-04-16T08:06:55.182Z,76.89
2023-04-16T08:09:24.941Z,76.25
2023-04-16T08:11:52.765Z,76.30
2023-04-16T08:14:21.196Z,76.40
2023-04-16T08:16:48.890Z,75.61
2023-04-16T08:19:16.677Z,76.57
2023-04-16T08:21:44.583Z,76.31
2023-04-16T08:24:13.793Z,76.42
2023-04-16T08:26:41.589Z,75.88
2023-04-16T08:29:09.568Z,75.81
2023-04-16T08:31:37.664Z,75.16
2023-04-16T08:34:05.729Z,75.32
2023-04-16T08:36:33.460Z,75.30
2023-04-16T08:39:01.215Z,74.16
2023-04-16T08:41:33.239Z,73.62
2023-04-16T08:44:05.933Z,74.13
2023-04-16T08:46:37.954Z,73.32
2023-04-16T08:49:09.504Z,73.75
2023-04-16T08:51:40.384Z,72.55
2023-04-16T08:54:13.150Z,72.07
2023-04-16T08:56:43.396Z,72.22
2023-04-16T08:59:11.845Z,72.63
2023-04-16T09:01:41.787Z,71.50
2023-04-16T09:04:10.823Z,71.52
2023-04-16T09:06:41.366Z,70.80
2023-04-16T09:09:10.594Z,70.28
2023-04-16T09:11:39.375Z,69.43
2023-04-16T09:14:11.341Z,68.03
2023-04-16T09:16:40.460Z,67.33
2023-04-16T09:19:08.540Z,68.07
2023-04-16T09:21:37.100Z,67.68
2023-04-16T09:24:05.384Z,68.48
2023-04-16T09:26:33.751Z,69.06
2023-04-16T09:29:01.768Z,70.55
2023-04-16T09:31:30.977Z,71.06
2023-04-16T09:34:03.764Z,71.18
2023-04-16T09:36:32.452Z,71.63
2023-04-16T09:39:00.996Z,71.12
2023-04-16T09:41:30.555Z,71.90
2023-04-16T09:43:59.931Z,71.59
2023-04-16T09:46:32.870Z,71.91
2023-04-16T09:49:06.310Z,71.51
2023-04-16T09:51:38.302Z,72.01
2023-04-16T09:54:06.815Z,71.32
2023-04-16T09:56:34.940Z,71.53
2023-04-16T09:59:02.672Z,71.46
2023-04-16T10:01:33.121Z,72.14
2023-04-16T10:04:01.034Z,72.87
2023-04-16T10:06:31.160Z,72.80
2023-04-16T10:08:59.001Z,72.54
2023-04-16T10:11:27.095Z,72.54
2023-04-16T10:13:54.977Z,72.09
2023-04-16T10:16:23.781Z,71.91
2023-04-16T10:18:54.413Z,71.29
2023-04-16T10:21:22.597Z,71.06
2023-04-16T10:23:52.523Z,71.52
2023-04-16T10:26:22.625Z,71.52
2023-04-16T10:28:51.294Z,71.78
2023-04-16T10:31:19.145Z,71.46
2023-04-16T10:33:47.422Z,71.65
2023-04-16T10:36:18.400Z,72.24
2023-04-16T10:38:47.490Z,71.60
2023-04-16T10:41:15.537Z,72.34
2023-04-16T10:43:45.472Z,72.56
2023-04-16T10:46:19.610Z,72.71
2023-04-16T10:48:50.439Z,73.29
2023-04-16T10:51:28.739Z,73.34
2023-04-16T10:53:57.410Z,74.03
2023-04-16T10:56:26.163Z,74.32
2023-04-16T10:58:56.038Z,74.77
2023-04-16T11:01:32.139Z,75.25
2023-04-16T11:04:02.765Z,75.25
2023-04-16T11:06:32.827Z,75.77
2023-04-16T11:09:00.826Z,75.71
2023-04-16T11:11:38.513Z,75.66
2023-04-16T11:14:07.098Z,75.61
2023-04-16T11:16:34.834Z,75.95
2023-04-16T11:19:03.015Z,76.33
2023-04-16T11:21:32.587Z,76.59
2023-04-16T11:24:00.367Z,76.51
2023-04-16T11:26:30.865Z,76.68
2023-04-16T11:29:00.233Z,76.79
2023-04-16T11:31:28.152Z,77.51
2023-04-16T11:33:57.865Z,77.71
2023-04-16T11:36:27.738Z,77.39
2023-04-16T11:39:04.503Z,77.49
2023-04-16T11:41:32.435Z,77.50
2023-04-16T11:44:00.383Z,77.61
2023-04-16T11:46:39.445Z,78.13
2023-04-16T11:49:07.509Z,77.82
2023-04-16T11:51:40.975Z,77.69
2023-04-16T11:54:11.874Z,77.49
2023-04-16T11:56:46.431Z,77.30
2023-04-16T11:59:15.679Z,77.51
2023-04-16T12:01:48.082Z,76.96
2023-04-16T12:04:17.047Z,77.07
2023-04-16T12:07:06.730Z,76.67
2023-04-16T12:09:39.574Z,76.80
2023-04-16T12:12:26.400Z,76.64
2023-04-16T12:14:54.556Z,76.62
2023-04-16T12:17:22.567Z,75.72
2023-04-16T12:19:52.184Z,75.60
2023-04-16T12:22:28.382Z,75.26
2023-04-16T12:25:05.130Z,74.31
2023-04-16T12:27:47.567Z,74.41
2023-04-16T12:30:17.025Z,74.12
2023-04-16T12:32:46.310Z,74.32
2023-04-16T12:35:14.620Z,74.42
2023-04-16T12:37:42.434Z,74.45
2023-04-16T12:40:12.229Z,74.77
2023-04-16T12:42:39.998Z,74.73
2023-04-16T12:45:08.450Z,74.86
2023-04-16T12:47:36.195Z,74.85
2023-04-16T12:50:04.065Z,75.04
2023-04-16T12:52:31.874Z,75.28
2023-04-16T12:54:59.786Z,75.09
2023-04-16T12:57:29.453Z,75.10
2023-04-16T12:59:57.493Z,75.16
2023-04-16T13:02:26.009Z,75.16
2023-04-16T13:04:55.057Z,74.98
2023-04-16T13:07:24.098Z,74.30
2023-04-16T13:09:51.997Z,74.15
2023-04-16T13:12:19.750Z,74.08
2023-04-16T13:14:48.864Z,74.15
2023-04-16T13:17:16.756Z,73.97
2023-04-16T13:19:45.194Z,73.83
2023-04-16T13:22:12.994Z,73.33
2023-04-16T13:24:40.830Z,73.33
2023-04-16T13:27:08.958Z,73.26
2023-04-16T13:29:37.458Z,72.64
2023-04-16T13:32:07.308Z,73.02
2023-04-16T13:34:35.201Z,72.63
2023-04-16T13:37:02.963Z,72.39
2023-04-16T13:39:30.649Z,71.38
2023-04-16T13:41:58.423Z,71.57
2023-04-16T13:44:26.337Z,71.20
2023-04-16T13:46:54.191Z,70.97
2023-04-16T13:49:23.656Z,70.77
2023-04-16T13:51:51.521Z,71.49
2023-04-16T13:54:19.314Z,71.25
2023-04-16T13:56:47.189Z,71.25
2023-04-16T13:59:16.639Z,71.05
2023-04-16T14:01:44.469Z,70.98
2023-04-16T14:04:12.236Z,70.97
2023-04-16T14:06:41.465Z,70.45
2023-04-16T14:09:10.749Z,70.81
2023-04-16T14:11:38.877Z,70.05
2023-04-16T14:14:06.783Z,69.90
2023-04-16T14:16:34.827Z,68.98
2023-04-16T14:19:02.669Z,69.42
2023-04-16T14:21:31.598Z,68.68
2023-04-16T14:24:00.796Z,68.13
2023-04-16T14:26:28.609Z,68.37
2023-04-16T14:28:56.446Z,68.34
2023-04-16T14:31:24.250Z,68.30
2023-04-16T14:33:52.014Z,67.87
2023-04-16T14:36:20.423Z,67.55
2023-04-16T14:38:48.723Z,67.13
2023-04-16T14:41:17.826Z,66.79
2023-04-16T14:43:45.597Z,67.20
2023-04-16T14:46:13.451Z,67.40
2023-04-16T14:48:41.366Z,67.05
2023-04-16T14:51:09.680Z,67.14
2023-04-16T14:53:37.993Z,67.18
2023-04-16T14:56:06.423Z,66.86
2023-04-16T14:58:37.848Z,67.38
2023-04-16T15:01:06.921Z,66.84
2023-04-16T15:03:34.803Z,67.09
2023-04-16T15:06:03.063Z,67.43
2023-04-16T15:08:31.366Z,67.63
2023-04-16T15:10:59.211Z,67.77
2023-04-16T15:13:33.516Z,67.95
2023-04-16T15:16:02.801Z,68.20
2023-04-16T15:18:30.661Z,68.14
2023-04-16T15:20:58.918Z,67.95
2023-04-16T15:23:26.726Z,67.87
2023-04-16T15:25:54.495Z,67.77
2023-04-16T15:28:22.272Z,67.91
2023-04-16T15:30:50.018Z,68.37
2023-04-16T15:33:21.877Z,68.29
2023-04-16T15:35:51.455Z,68.11
2023-04-16T15:38:21.011Z,68.74
2023-04-16T15:40:49.063Z,68.57
2023-04-16T15:43:16.962Z,68.63
2023-04-16T15:45:44.798Z,68.84
2023-04-16T15:48:12.645Z,68.82
2023-04-16T15:50:41.882Z,68.73
2023-04-16T15:53:09.684Z,68.74
2023-04-16T15:55:37.473Z,69.13
2023-04-16T15:58:05.620Z,69.27
2023-04-16T16:00:33.418Z,68.98
2023-04-16T16:03:01.295Z,69.07
2023-04-16T16:05:29.159Z,68.39
2023-04-16T16:07:58.698Z,68.48
2023-04-16T16:10:26.569Z,68.59
2023-04-16T16:12:54.505Z,68.34
2023-04-16T16:15:22.252Z,68.47
2023-04-16T16:17:50.036Z,68.52
2023-04-16T16:20:17.797Z,68.99
2023-04-16T16:22:47.555Z,68.95
2023-04-16T16:25:17.222Z,68.76
2023-04-16T16:27:44.915Z,68.28
2023-04-16T16:30:13.643Z,68.09
2023-04-16T16:32:43.730Z,68.02
2023-04-16T16:35:12.058Z,67.95
2023-04-16T16:37:39.885Z,68.12
2023-04-16T16:40:08.783Z,68.02
2023-04-16T16:42:37.918Z,68.19
2023-04-16T16:45:06.415Z,68.65
2023-04-16T16:47:34.527Z,68.61
2023-04-16T16:50:03.181Z,68.73
2023-04-16T16:52:32.056Z,68.91
2023-04-16T16:54:59.756Z,69.10
2023-04-16T16:57:27.566Z,69.46
2023-04-16T16:59:56.638Z,69.60
2023-04-16T17:02:24.674Z,69.98
2023-04-16T17:04:52.860Z,70.20
2023-04-16T17:07:20.827Z,70.02
2023-04-16T17:09:48.576Z,70.12
2023-04-16T17:12:17.699Z,70.12
2023-04-16T17:14:45.867Z,70.57
2023-04-16T17:17:14.908Z,70.90
2023-04-16T17:19:42.755Z,70.82
2023-04-16T17:22:10.716Z,70.81
2023-04-16T17:24:38.506Z,70.89
2023-04-16T17:27:06.392Z,71.05
2023-04-16T17:29:34.155Z,71.06
2023-04-16T17:32:01.993Z,71.13
2023-04-16T17:34:31.143Z,71.30
2023-04-16T17:36:58.852Z,71.23
2023-04-16T17:39:26.667Z,71.57
2023-04-16T17:41:58.286Z,71.51
2023-04-16T17:44:27.956Z,71.67
2023-04-16T17:46:55.786Z,71.78
2023-04-16T17:49:23.484Z,71.87
2023-04-16T17:51:53.620Z,71.95
2023-04-16T17:54:21.391Z,72.13
2023-04-16T17:56:49.166Z,72.31
2023-04-16T17:59:16.907Z,72.40
2023-04-16T18:01:45.446Z,72.81
2023-04-16T18:04:13.596Z,72.72
2023-04-16T18:06:41.949Z,73.18
2023-04-16T18:09:12.022Z,72.94
2023-04-16T18:11:39.815Z,72.94
2023-04-16T18:14:09.930Z,73.33
2023-04-16T18:16:37.907Z,73.36
2023-04-16T18:19:05.862Z,73.47
2023-04-16T18:21:33.897Z,73.59
2023-04-16T18:24:03.415Z,73.82
2023-04-16T18:26:35.717Z,73.71
2023-04-16T18:29:04.122Z,73.86
2023-04-16T18:31:31.917Z,74.23
2023-04-16T18:33:59.770Z,74.35
2023-04-16T18:36:27.609Z,74.45
2023-04-16T18:41:27.119Z,74.86
2023-04-16T18:43:56.294Z,74.83
2023-04-16T18:46:24.307Z,74.91
2023-04-16T18:48:52.128Z,75.06
2023-04-16T18:51:19.902Z,74.96
2023-04-16T18:53:47.606Z,74.80
2023-04-16T18:56:15.440Z,74.93
2023-04-16T18:58:43.260Z,75.22
2023-04-16T19:01:13.923Z,75.35
2023-04-16T19:03:41.765Z,75.33
2023-04-16T19:06:09.654Z,75.63
2023-04-16T19:08:37.412Z,75.55
2023-04-16T19:11:05.175Z,75.87
2023-04-16T19:13:33.079Z,75.72
2023-04-16T19:16:02.311Z,75.92
2023-04-16T19:18:31.574Z,76.17
2023-04-16T19:21:02.391Z,76.59
2023-04-16T19:23:30.315Z,76.34
2023-04-16T19:26:01.474Z,76.37
2023-04-16T19:28:29.311Z,76.47
2023-04-16T19:30:57.097Z,76.71
2023-04-16T19:33:24.823Z,76.64
2023-04-16T19:35:53.926Z,76.54
2023-04-16T19:38:21.765Z,76.63
2023-04-16T19:40:49.950Z,76.78
2023-04-16T19:43:17.675Z,76.72
2023-04-16T19:45:46.028Z,76.74
2023-04-16T19:48:14.399Z,76.74
2023-04-16T19:50:43.120Z,76.77
2023-04-16T19:53:12.947Z,76.81
2023-04-16T19:55:40.866Z,76.97
2023-04-16T19:58:08.876Z,76.64
2023-04-16T20:00:38.200Z,76.80
2023-04-16T20:03:06.383Z,76.67
2023-04-16T20:05:34.249Z,76.69
2023-04-16T20:08:02.252Z,76.83
2023-04-16T20:10:31.941Z,76.93
2023-04-16T20:12:59.702Z,76.92
2023-04-16T20:15:27.508Z,77.06
2023-04-16T20:17:56.025Z,77.10
2023-04-16T20:20:24.055Z,77.08
2023-04-16T20:22:51.842Z,77.18
2023-04-16T20:25:20.378Z,77.23
2023-04-16T20:27:49.683Z,77.18
2023-04-16T20:30:18.102Z,77.43
2023-04-16T20:32:45.933Z,77.32
2023-04-16T20:35:13.746Z,77.24
2023-04-16T20:37:42.952Z,77.31
2023-04-16T20:40:14.966Z,77.34
2023-04-16T20:42:46.233Z,77.62
2023-04-16T20:45:16.283Z,77.57
2023-04-16T20:47:44.440Z,77.69
2023-04-16T20:50:12.447Z,77.81
2023-04-16T20:52:40.163Z,78.33
2023-04-16T20:55:09.171Z,78.35
2023-04-16T20:57:36.842Z,78.26
2023-04-16T21:00:09.137Z,78.44
2023-04-16T21:02:38.551Z,78.76
2023-04-16T21:05:08.987Z,78.63
2023-04-16T21:07:36.847Z,78.91
2023-04-16T21:10:05.091Z,78.64
2023-04-16T21:12:32.905Z,79.14
2023-04-16T21:15:00.702Z,79.09
2023-04-16T21:17:28.813Z,78.97
2023-04-16T21:19:58.078Z,79.20
2023-04-16T21:22:25.939Z,79.09
2023-04-16T21:24:53.688Z,79.28
2023-04-16T21:27:21.529Z,79.08
2023-04-16T21:29:49.292Z,79.01
2023-04-16T21:32:17.055Z,79.05
2023-04-16T21:34:44.805Z,79.12
2023-04-16T21:37:13.918Z,79.08
2023-04-16T21:39:41.731Z,79.14
2023-04-16T21:42:09.648Z,79.61
2023-04-16T21:44:37.490Z,79.30
2023-04-16T21:47:05.312Z,80.27
2023-04-16T21:49:33.213Z,79.82
2023-04-16T21:52:02.484Z,79.80
2023-04-16T21:54:31.744Z,79.89
2023-04-16T21:56:59.495Z,80.03
2023-04-16T21:59:27.330Z,80.39
2023-04-16T22:01:55.125Z,79.99
2023-04-16T22:04:26.210Z,80.52
2023-04-16T22:06:56.198Z,80.90
2023-04-16T22:09:24.759Z,80.77
2023-04-16T22:11:53.883Z,80.80
2023-04-16T22:14:21.642Z,80.88
2023-04-16T22:16:51.806Z,80.79
2023-04-16T22:19:19.745Z,81.62
2023-04-16T22:21:47.878Z,81.42
2023-04-16T22:24:16.066Z,81.38
2023-04-16T22:26:43.802Z,81.39
2023-04-16T22:29:13.198Z,81.50
2023-04-16T22:31:41.275Z,81.47
2023-04-16T22:34:09.080Z,81.55
2023-04-16T22:36:36.807Z,81.38
2023-04-16T22:39:08.362Z,81.43
2023-04-16T22:41:36.605Z,81.34
2023-04-16T22:44:09.463Z,81.35
2023-04-16T22:46:38.710Z,81.05
2023-04-16T22:49:06.634Z,80.69
2023-04-16T22:51:34.413Z,80.72
2023-04-16T22:54:02.097Z,80.71
2023-04-16T22:56:31.014Z,80.56
2023-04-16T22:58:58.715Z,80.62
2023-04-16T23:01:26.594Z,80.51
2023-04-16T23:03:55.795Z,80.17
2023-04-16T23:06:23.583Z,80.12
2023-04-16T23:08:51.393Z,80.16
2023-04-16T23:11:19.165Z,80.16
2023-04-16T23:13:46.918Z,80.16
2023-04-16T23:16:14.702Z,80.14
2023-04-16T23:18:42.481Z,80.18
2023-04-16T23:21:11.563Z,80.35
2023-04-16T23:23:39.330Z,80.38
2023-04-16T23:26:07.048Z,80.61
2023-04-16T23:28:34.793Z,80.74
2023-04-16T23:31:04.174Z,81.04
2023-04-16T23:33:33.263Z,81.03
2023-04-16T23:36:01.085Z,81.29
2023-04-16T23:38:30.716Z,81.09
2023-04-16T23:40:58.403Z,81.05
2023-04-16T23:43:26.296Z,81.04
2023-04-16T23:45:54.039Z,81.26
2023-04-16T23:48:21.759Z,81.09
2023-04-16T23:50:49.562Z,81.19
2023-04-16T23:53:17.324Z,81.21
2023-04-16T23:55:46.432Z,81.25
2023-04-16T23:58:14.180Z,81.38
